Time;durP1;ratioP1;P1;durP2;ratioP2;P2;SDS_P1;SDS_P2;PMS_P1;PMS_P2;Temp;Humidity;BMP_temperature;BMP_pressure;BME280_temperature;BME280_humidity;BME280_pressure;Samples;Min_cycle;Max_cycle;Signal;HPM_P1;HPM_P2
2022/08/11 00:01:24;;;;;;;3.20;1.00;;;;;;;;;;4965755;28;20506;-65
2022/08/11 00:03:58;;;;;;;1.85;1.00;;;;;;;;;;4967407;28;20518;-66
2022/08/11 00:06:29;;;;;;;2.78;1.20;;;;;;;;;;4965530;28;20549;-65
2022/08/11 00:08:55;;;;;;;2.15;1.20;;;;;;;;;;4966100;28;20447;-65
2022/08/11 00:11:21;;;;;;;3.70;0.90;;;;;;;;;;4969095;28;20367;-66
2022/08/11 00:13:48;;;;;;;2.13;1.30;;;;;;;;;;4971054;28;20369;-66
2022/08/11 00:16:20;;;;;;;2.35;1.00;;;;;;;;;;4986263;28;20329;-66
2022/08/11 00:18:49;;;;;;;3.40;1.08;;;;;;;;;;4969856;28;20021;-67
2022/08/11 00:21:15;;;;;;;2.08;1.05;;;;;;;;;;4971169;28;20368;-65
2022/08/11 00:23:46;;;;;;;1.45;1.10;;;;;;;;;;4971077;28;20128;-66
2022/08/11 00:26:13;;;;;;;2.22;1.10;;;;;;;;;;4970981;28;20536;-66
2022/08/11 00:28:38;;;;;;;1.75;1.13;;;;;;;;;;4970717;28;20085;-66
2022/08/11 00:31:06;;;;;;;3.63;1.00;;;;;;;;;;4969534;28;20523;-65
2022/08/11 00:33:36;;;;;;;1.20;1.00;;;;;;;;;;4969368;28;20427;-65
2022/08/11 00:36:02;;;;;;;2.90;0.93;;;;;;;;;;4972101;28;20447;-65
2022/08/11 00:38:34;;;;;;;1.48;0.80;;;;;;;;;;4971677;28;20440;-66
2022/08/11 00:41:15;;;;;;;2.80;1.15;;;;;;;;;;4970520;28;20083;-66
2022/08/11 00:43:48;;;;;;;2.20;1.23;;;;;;;;;;4969405;28;20503;-66
2022/08/11 00:46:55;;;;;;;1.27;0.90;;;;;;;;;;4970577;28;20034;-65
2022/08/11 00:49:37;;;;;;;1.25;0.85;;;;;;;;;;4971334;28;20121;-66
2022/08/11 00:52:09;;;;;;;2.15;1.08;;;;;;;;;;4969138;28;20034;-65
2022/08/11 00:55:09;;;;;;;1.83;1.00;;;;;;;;;;4970595;28;20037;-65
2022/08/11 00:58:10;;;;;;;1.73;1.20;;;;;;;;;;4968792;28;20528;-65
2022/08/11 01:01:06;;;;;;;1.80;1.10;;;;;;;;;;4966993;28;20442;-66
2022/08/11 01:04:09;;;;;;;1.30;0.80;;;;;;;;;;4967465;28;20463;-65
2022/08/11 01:07:16;;;;;;;2.13;1.10;;;;;;;;;;4969073;28;20088;-65
2022/08/11 01:09:50;;;;;;;1.40;1.13;;;;;;;;;;4969514;28;20064;-66
2022/08/11 01:12:20;;;;;;;1.27;1.00;;;;;;;;;;4970015;28;20472;-65
2022/08/11 01:15:20;;;;;;;3.10;1.45;;;;;;;;;;4968434;28;20321;-66
2022/08/11 01:17:51;;;;;;;2.50;1.00;;;;;;;;;;4969732;28;20063;-65
2022/08/11 01:20:48;;;;;;;1.63;1.10;;;;;;;;;;4970972;28;20417;-66
2022/08/11 01:23:35;;;;;;;0.93;0.82;;;;;;;;;;4969854;28;20394;-65
2022/08/11 01:26:33;;;;;;;1.95;0.98;;;;;;;;;;4969887;28;20512;-66
2022/08/11 01:29:17;;;;;;;1.17;0.97;;;;;;;;;;4967813;28;20391;-65
2022/08/11 01:32:02;;;;;;;1.52;0.90;;;;;;;;;;4968062;28;20363;-65
2022/08/11 01:35:05;;;;;;;1.13;0.80;;;;;;;;;;4971174;28;20574;-65
2022/08/11 01:37:42;;;;;;;2.00;1.08;;;;;;;;;;4971962;28;20387;-65
2022/08/11 01:40:36;;;;;;;1.42;1.00;;;;;;;;;;4969697;28;20393;-65
2022/08/11 01:46:15;;;;;;;1.30;0.90;;;;;;;;;;4968216;28;20387;-66
2022/08/11 01:49:14;;;;;;;1.80;0.80;;;;;;;;;;4968031;28;20372;-67
2022/08/11 01:52:05;;;;;;;1.98;1.00;;;;;;;;;;4969282;28;20448;-65
2022/08/11 01:54:44;;;;;;;4.20;1.08;;;;;;;;;;4969357;28;20053;-66
2022/08/11 01:57:15;;;;;;;1.42;0.77;;;;;;;;;;4967733;28;20452;-65
2022/08/11 01:59:49;;;;;;;2.08;1.00;;;;;;;;;;4969750;28;20536;-66
2022/08/11 02:02:55;;;;;;;2.13;0.82;;;;;;;;;;4969150;28;20055;-65
2022/08/11 02:06:53;;;;;;;2.60;1.23;;;;;;;;;;4968791;28;20041;-67
2022/08/11 02:09:03;;;;;;;1.95;1.13;;;;;;;;;;4952186;28;20433;-65
2022/08/11 02:11:32;;;;;;;1.10;0.88;;;;;;;;;;4968790;28;20452;-66
2022/08/11 02:14:35;;;;;;;1.38;0.80;;;;;;;;;;4967297;28;20329;-65
2022/08/11 02:17:14;;;;;;;2.50;1.10;;;;;;;;;;4968596;28;20238;-66
2022/08/11 02:25:50;;;;;;;1.73;1.20;;;;;;;;;;4967300;28;20356;-65
2022/08/11 02:28:15;;;;;;;1.65;0.90;;;;;;;;;;4969391;28;20356;-69
2022/08/11 02:33:21;;;;;;;1.85;0.80;;;;;;;;;;4968329;28;20364;-65
2022/08/11 02:33:40;;;;;;;1.20;0.90;;;;;;;;;;4967033;28;20416;-65
2022/08/11 02:36:07;;;;;;;;;;;;;;;;;;4968832;28;20104;-65
2022/08/11 02:38:34;;;;;;;1.23;1.05;;;;;;;;;;4968355;28;20271;-66
2022/08/11 02:44:56;;;;;;;1.95;0.93;;;;;;;;;;4966936;28;20140;-66
2022/08/11 02:49:52;;;;;;;1.70;0.90;;;;;;;;;;4967055;28;20415;-66
2022/08/11 02:51:09;;;;;;;1.55;1.00;;;;;;;;;;4968292;28;20183;-66
2022/08/11 02:54:08;;;;;;;2.05;1.23;;;;;;;;;;4968140;28;20464;-65
2022/08/11 02:56:53;;;;;;;0.77;0.70;;;;;;;;;;4966310;28;20353;-66
2022/08/11 03:02:26;;;;;;;1.67;0.80;;;;;;;;;;4968309;28;20068;-66
2022/08/11 03:05:16;;;;;;;2.03;1.00;;;;;;;;;;4968356;28;20420;-66
2022/08/11 03:07:44;;;;;;;1.52;0.80;;;;;;;;;;4967876;28;20395;-65
2022/08/11 03:10:21;;;;;;;1.85;1.00;;;;;;;;;;4967799;28;20464;-66
2022/08/11 03:18:40;;;;;;;2.10;0.90;;;;;;;;;;4967043;28;20363;-68
2022/08/11 03:21:15;;;;;;;1.58;1.20;;;;;;;;;;4966102;28;20029;-65
2022/08/11 03:23:48;;;;;;;1.05;0.88;;;;;;;;;;4966170;28;20452;-65
2022/08/11 03:26:44;;;;;;;3.88;1.10;;;;;;;;;;4968429;28;20456;-67
2022/08/11 03:29:45;;;;;;;1.70;1.00;;;;;;;;;;4965375;28;20472;-65
2022/08/11 03:32:21;;;;;;;1.52;1.10;;;;;;;;;;4965862;28;20440;-66
2022/08/11 03:34:47;;;;;;;1.63;1.23;;;;;;;;;;4966152;28;20375;-65
2022/08/11 03:43:25;;;;;;;3.88;1.15;;;;;;;;;;4967853;28;20448;-66
2022/08/11 03:46:10;;;;;;;1.70;0.90;;;;;;;;;;4966727;28;20189;-66
2022/08/11 03:49:00;;;;;;;1.95;1.08;;;;;;;;;;4966979;28;20565;-65
2022/08/11 03:51:34;;;;;;;1.63;1.13;;;;;;;;;;4967187;28;20517;-66
2022/08/11 03:54:44;;;;;;;1.55;1.23;;;;;;;;;;4966022;28;20313;-66
2022/08/11 03:57:09;;;;;;;1.88;1.20;;;;;;;;;;4969536;28;20483;-65
2022/08/11 03:59:44;;;;;;;2.03;1.15;;;;;;;;;;4967115;28;20396;-66
2022/08/11 04:02:13;;;;;;;1.80;1.10;;;;;;;;;;4965923;28;20403;-66
2022/08/11 04:05:06;;;;;;;2.28;1.33;;;;;;;;;;4967133;28;20390;-66
2022/08/11 04:07:37;;;;;;;1.90;0.90;;;;;;;;;;4966875;28;20391;-67
2022/08/11 04:10:21;;;;;;;2.47;1.40;;;;;;;;;;4968670;28;20034;-65
2022/08/11 04:13:28;;;;;;;4.93;1.70;;;;;;;;;;4966818;28;20290;-66
2022/08/11 04:16:32;;;;;;;2.13;0.98;;;;;;;;;;4956498;28;20537;-66
2022/08/11 04:19:09;;;;;;;2.05;1.20;;;;;;;;;;4965280;28;20344;-65
2022/08/11 04:22:06;;;;;;;2.13;1.35;;;;;;;;;;4965258;28;20363;-67
2022/08/11 04:25:10;;;;;;;2.47;1.40;;;;;;;;;;4965350;28;20409;-66
2022/08/11 04:27:53;;;;;;;3.25;1.13;;;;;;;;;;4969253;28;20387;-66
2022/08/11 04:30:43;;;;;;;2.58;1.45;;;;;;;;;;4964950;28;20388;-65
2022/08/11 04:33:18;;;;;;;2.28;1.20;;;;;;;;;;4965668;28;20478;-65
2022/08/11 04:39:29;;;;;;;2.00;1.13;;;;;;;;;;4965076;28;20111;-65
2022/08/11 04:45:05;;;;;;;1.95;1.40;;;;;;;;;;4966612;28;20356;-65
2022/08/11 05:02:37;;;;;;;2.13;1.20;;;;;;;;;;4970303;28;20433;-66
2022/08/11 05:05:30;;;;;;;2.40;1.58;;;;;;;;;;4970173;28;20448;-66
2022/08/11 05:08:07;;;;;;;2.05;1.42;;;;;;;;;;4968770;28;20436;-66
2022/08/11 05:10:54;;;;;;;2.80;1.42;;;;;;;;;;4968681;28;20347;-65
2022/08/11 05:36:27;;;;;;;2.00;1.10;;;;;;;;;;4970563;28;20399;-65
2022/08/11 05:58:12;;;;;;;3.13;1.70;;;;;;;;;;4970156;28;20523;-66
2022/08/11 06:00:42;;;;;;;4.43;1.20;;;;;;;;;;4968566;28;20503;-65
2022/08/11 06:03:09;;;;;;;3.83;1.30;;;;;;;;;;4969824;28;20106;-65
2022/08/11 06:05:42;;;;;;;1.70;1.08;;;;;;;;;;4968955;28;20391;-66
2022/08/11 06:08:08;;;;;;;1.80;1.15;;;;;;;;;;4966753;28;20026;-65
2022/08/11 06:10:44;;;;;;;1.80;0.90;;;;;;;;;;4967742;28;20443;-66
2022/08/11 06:13:14;;;;;;;1.58;1.13;;;;;;;;;;4967709;28;20437;-65
2022/08/11 06:15:45;;;;;;;4.30;1.35;;;;;;;;;;4967931;28;20447;-66
2022/08/11 06:18:11;;;;;;;1.98;1.10;;;;;;;;;;4968693;28;20392;-66
2022/08/11 06:20:52;;;;;;;2.05;1.15;;;;;;;;;;4967509;28;20348;-66
2022/08/11 06:23:21;;;;;;;2.53;1.42;;;;;;;;;;4968680;28;20526;-66
2022/08/11 06:25:47;;;;;;;2.65;1.20;;;;;;;;;;4953066;28;20330;-66
2022/08/11 06:28:14;;;;;;;2.40;1.40;;;;;;;;;;4968454;28;20356;-66
2022/08/11 06:30:41;;;;;;;1.50;1.00;;;;;;;;;;4966558;28;20468;-65
2022/08/11 06:33:09;;;;;;;3.30;1.13;;;;;;;;;;4968376;28;20108;-65
2022/08/11 06:36:16;;;;;;;2.50;1.27;;;;;;;;;;4966919;28;20446;-66
2022/08/11 06:39:09;;;;;;;2.20;1.00;;;;;;;;;;4967970;28;20100;-66
2022/08/11 06:41:45;;;;;;;2.10;1.05;;;;;;;;;;4968300;28;20371;-65
2022/08/11 06:44:17;;;;;;;1.70;1.25;;;;;;;;;;4966631;28;20376;-66
2022/08/11 06:46:49;;;;;;;1.48;1.17;;;;;;;;;;4967439;28;20519;-65
2022/08/11 06:52:16;;;;;;;1.67;1.17;;;;;;;;;;4977301;28;20452;-65
2022/08/11 06:54:53;;;;;;;1.30;0.90;;;;;;;;;;4968147;28;20432;-66
2022/08/11 07:03:12;;;;;;;1.27;1.08;;;;;;;;;;4969898;28;20351;-65
2022/08/11 07:05:44;;;;;;;1.90;1.10;;;;;;;;;;4966447;28;20388;-65
2022/08/11 07:17:43;;;;;;;1.10;0.93;;;;;;;;;;4967856;28;20478;-66
2022/08/11 07:28:57;;;;;;;1.63;1.05;;;;;;;;;;4965685;28;20419;-67
2022/08/11 07:31:30;;;;;;;1.13;0.73;;;;;;;;;;4966055;28;20387;-65
2022/08/11 07:34:11;;;;;;;2.05;1.30;;;;;;;;;;4967535;28;20506;-65
2022/08/11 07:36:41;;;;;;;1.63;0.90;;;;;;;;;;4967339;28;20545;-65
2022/08/11 07:39:16;;;;;;;2.40;1.00;;;;;;;;;;4966239;28;20390;-66
2022/08/11 07:41:42;;;;;;;1.77;0.98;;;;;;;;;;4967315;28;20034;-66
2022/08/11 07:44:08;;;;;;;2.10;1.20;;;;;;;;;;4966896;28;20470;-65
2022/08/11 07:52:29;;;;;;;2.13;1.27;;;;;;;;;;4967847;28;20447;-65
2022/08/11 07:55:05;;;;;;;1.48;1.10;;;;;;;;;;4965876;28;20096;-65
2022/08/11 08:19:28;;;;;;;1.80;1.17;;;;;;;;;;4966870;28;20353;-67
2022/08/11 08:21:54;;;;;;;0.95;0.75;;;;;;;;;;4965538;28;20387;-65
2022/08/11 08:24:20;;;;;;;1.33;1.00;;;;;;;;;;4966633;28;20413;-66
2022/08/11 08:26:59;;;;;;;3.63;1.08;;;;;;;;;;4965530;28;20421;-66
2022/08/11 08:32:15;;;;;;;2.38;1.17;;;;;;;;;;4968811;28;20103;-66
2022/08/11 08:34:41;;;;;;;3.67;1.42;;;;;;;;;;4970822;28;20394;-66
2022/08/11 08:37:07;;;;;;;1.65;0.90;;;;;;;;;;4969682;28;20367;-66
2022/08/11 08:39:33;;;;;;;1.02;0.90;;;;;;;;;;4970662;28;20459;-66
2022/08/11 08:41:59;;;;;;;1.67;0.80;;;;;;;;;;4970465;28;20357;-66
2022/08/11 08:44:25;;;;;;;3.63;1.10;;;;;;;;;;4969243;28;20504;-66
2022/08/11 08:46:54;;;;;;;2.75;1.10;;;;;;;;;;4969399;28;20345;-66
2022/08/11 08:49:26;;;;;;;1.40;0.82;;;;;;;;;;4968966;28;20041;-66
2022/08/11 08:51:53;;;;;;;1.00;0.80;;;;;;;;;;4968428;28;20468;-66
2022/08/11 08:54:22;;;;;;;1.88;0.70;;;;;;;;;;4968812;28;20395;-66
2022/08/11 08:56:48;;;;;;;;;;;;;;;;;;4971785;28;20412;-66
2022/08/11 08:59:14;;;;;;;1.48;1.00;;;;;;;;;;4969286;28;20515;-66
2022/08/11 09:01:48;;;;;;;1.17;0.80;;;;;;;;;;4971690;28;20301;-66
2022/08/11 09:04:14;;;;;;;1.30;0.80;;;;;;;;;;4970396;28;20438;-66
2022/08/11 09:06:42;;;;;;;1.98;1.10;;;;;;;;;;4970279;28;20472;-65
2022/08/11 09:09:08;;;;;;;1.73;1.05;;;;;;;;;;4970402;28;20022;-66
2022/08/11 09:11:54;;;;;;;1.90;1.25;;;;;;;;;;4968434;28;20472;-66
2022/08/11 09:14:21;;;;;;;1.63;0.90;;;;;;;;;;4968544;28;20341;-65
2022/08/11 09:16:48;;;;;;;0.60;0.60;;;;;;;;;;4968883;28;20432;-66
2022/08/11 09:19:18;;;;;;;1.48;0.85;;;;;;;;;;4969180;28;20445;-65
2022/08/11 09:26:58;;;;;;;1.48;0.85;;;;;;;;;;4969939;28;20451;-66
2022/08/11 09:27:19;;;;;;;3.17;1.27;;;;;;;;;;4970130;28;20795;-65
2022/08/11 09:29:45;;;;;;;1.27;0.75;;;;;;;;;;4969540;28;20341;-65
2022/08/11 09:32:10;;;;;;;2.85;0.80;;;;;;;;;;4968365;28;20360;-65
2022/08/11 09:34:36;;;;;;;1.23;0.90;;;;;;;;;;4971535;28;20029;-66
2022/08/11 09:45:15;;;;;;;0.93;0.70;;;;;;;;;;4969275;28;20462;-65
2022/08/11 09:47:42;;;;;;;3.65;0.93;;;;;;;;;;4968678;28;20403;-67
2022/08/11 09:50:08;;;;;;;1.35;0.85;;;;;;;;;;4968521;28;20451;-65
2022/08/11 09:52:40;;;;;;;1.25;0.82;;;;;;;;;;4967619;28;20427;-65
2022/08/11 09:55:10;;;;;;;3.30;0.90;;;;;;;;;;4969271;28;20342;-66
2022/08/11 10:00:28;;;;;;;1.13;0.73;;;;;;;;;;4969965;28;20052;-65
2022/08/11 10:02:54;;;;;;;0.95;0.80;;;;;;;;;;4967499;28;20379;-65
2022/08/11 10:08:06;;;;;;;1.20;0.68;;;;;;;;;;4969050;28;20415;-66
2022/08/11 10:10:36;;;;;;;1.17;0.70;;;;;;;;;;4969847;28;20401;-66
2022/08/11 10:13:05;;;;;;;1.75;1.10;;;;;;;;;;4969051;28;20398;-66
2022/08/11 10:15:34;;;;;;;1.08;0.90;;;;;;;;;;4967637;28;20333;-65
2022/08/11 10:20:59;;;;;;;1.20;0.73;;;;;;;;;;4968750;28;20363;-66
2022/08/11 10:28:55;;;;;;;1.45;0.70;;;;;;;;;;4969065;28;20483;-65
2022/08/11 10:34:07;;;;;;;1.23;0.80;;;;;;;;;;4967382;28;20087;-70
2022/08/11 10:36:41;;;;;;;0.70;0.60;;;;;;;;;;4969523;28;20360;-66
2022/08/11 10:39:07;;;;;;;1.35;0.75;;;;;;;;;;4967267;28;20486;-65
2022/08/11 10:44:19;;;;;;;1.10;0.70;;;;;;;;;;4969979;28;20399;-66
2022/08/11 10:49:29;;;;;;;0.80;0.57;;;;;;;;;;4968060;28;20348;-69
2022/08/11 11:00:14;;;;;;;1.90;0.80;;;;;;;;;;4966797;28;20578;-69
2022/08/11 11:02:43;;;;;;;0.90;0.52;;;;;;;;;;4967838;28;20371;-68
2022/08/11 11:05:15;;;;;;;0.90;0.57;;;;;;;;;;4968730;28;20505;-67
2022/08/11 11:07:49;;;;;;;0.98;0.60;;;;;;;;;;4967907;28;20424;-66
2022/08/11 11:10:14;;;;;;;0.68;0.60;;;;;;;;;;4967109;28;20140;-66
2022/08/11 11:18:23;;;;;;;1.30;0.63;;;;;;;;;;4968160;28;20110;-67
2022/08/11 11:21:04;;;;;;;0.63;0.50;;;;;;;;;;4966529;28;20396;-66
2022/08/11 11:23:53;;;;;;;1.13;0.70;;;;;;;;;;4967564;28;20033;-66
2022/08/11 11:26:30;;;;;;;1.05;0.52;;;;;;;;;;4967669;28;20399;-66
2022/08/11 11:28:59;;;;;;;0.93;0.60;;;;;;;;;;4966232;28;20364;-68
2022/08/11 11:31:49;;;;;;;0.80;0.50;;;;;;;;;;4968410;28;20467;-66
2022/08/11 11:34:22;;;;;;;0.70;0.55;;;;;;;;;;4968031;28;20359;-66
2022/08/11 11:36:53;;;;;;;0.60;0.40;;;;;;;;;;4967317;28;20353;-66
2022/08/11 11:39:20;;;;;;;0.70;0.50;;;;;;;;;;4967327;28;20034;-66
2022/08/11 11:41:50;;;;;;;1.63;0.43;;;;;;;;;;4965511;28;20425;-66
2022/08/11 11:44:17;;;;;;;0.70;0.40;;;;;;;;;;4969414;28;20664;-70
2022/08/11 11:46:44;;;;;;;0.65;0.50;;;;;;;;;;4967192;28;20447;-66
2022/08/11 11:49:10;;;;;;;1.15;0.63;;;;;;;;;;4968776;28;20033;-66
2022/08/11 11:51:36;;;;;;;0.90;0.60;;;;;;;;;;4966353;28;20363;-69
2022/08/11 11:54:03;;;;;;;0.68;0.50;;;;;;;;;;4966173;28;20467;-66
2022/08/11 11:56:29;;;;;;;0.63;0.57;;;;;;;;;;4965483;28;20433;-66
2022/08/11 12:01:42;;;;;;;3.30;0.50;;;;;;;;;;4965885;28;20067;-66
2022/08/11 12:04:08;;;;;;;0.93;0.52;;;;;;;;;;4967366;28;20472;-66
2022/08/11 12:06:33;;;;;;;1.02;0.43;;;;;;;;;;4964928;28;20405;-64
2022/08/11 12:08:59;;;;;;;0.30;0.30;;;;;;;;;;4967183;28;20391;-64
2022/08/11 12:14:12;;;;;;;0.57;0.50;;;;;;;;;;4968678;28;20059;-66
2022/08/11 12:16:42;;;;;;;0.40;0.40;;;;;;;;;;4965282;28;20476;-66
2022/08/11 12:19:17;;;;;;;0.73;0.50;;;;;;;;;;4967927;28;20170;-66
2022/08/11 12:27:22;;;;;;;0.50;0.45;;;;;;;;;;4968197;28;20356;-66
2022/08/11 12:29:50;;;;;;;0.25;0.25;;;;;;;;;;4966289;28;20573;-67
2022/08/11 12:32:16;;;;;;;0.38;0.30;;;;;;;;;;4964948;28;20452;-66
2022/08/11 12:34:42;;;;;;;0.70;0.40;;;;;;;;;;4966646;28;20353;-67
2022/08/11 12:37:11;;;;;;;0.28;0.28;;;;;;;;;;4967565;28;20056;-64
2022/08/11 12:45:28;;;;;;;0.70;0.40;;;;;;;;;;4966446;28;20138;-66
2022/08/11 12:53:44;;;;;;;0.47;0.43;;;;;;;;;;4968286;28;20533;-66
2022/08/11 13:07:09;;;;;;;1.05;0.47;;;;;;;;;;4965384;28;20056;-66
2022/08/11 13:09:34;;;;;;;0.30;0.30;;;;;;;;;;4966487;28;20472;-70
2022/08/11 13:14:44;;;;;;;0.22;0.20;;;;;;;;;;4965731;28;20356;-65
2022/08/11 13:17:21;;;;;;;0.68;0.40;;;;;;;;;;4967027;28;20387;-65
2022/08/11 13:19:47;;;;;;;3.17;0.43;;;;;;;;;;4969423;28;20518;-66
2022/08/11 13:22:16;;;;;;;2.05;0.65;;;;;;;;;;4968260;28;20431;-66
2022/08/11 13:24:41;;;;;;;2.08;0.40;;;;;;;;;;4970060;28;20448;-67
2022/08/11 13:27:11;;;;;;;2.05;0.47;;;;;;;;;;4968540;28;20482;-66
2022/08/11 13:29:37;;;;;;;2.78;0.50;;;;;;;;;;4969083;28;20399;-67
2022/08/11 13:32:03;;;;;;;0.57;0.50;;;;;;;;;;4970333;28;20456;-66
2022/08/11 13:34:30;;;;;;;1.88;0.45;;;;;;;;;;4970016;28;20328;-67
2022/08/11 13:36:58;;;;;;;0.52;0.50;;;;;;;;;;4969569;28;20029;-65
2022/08/11 13:39:25;;;;;;;4.38;1.23;;;;;;;;;;4968305;28;21526;-68
2022/08/11 13:41:55;;;;;;;1.08;0.52;;;;;;;;;;4969458;28;20052;-66
2022/08/11 13:44:21;;;;;;;1.13;0.60;;;;;;;;;;4969294;28;20037;-66
2022/08/11 13:46:46;;;;;;;0.77;0.50;;;;;;;;;;4968273;28;20025;-67
2022/08/11 13:49:15;;;;;;;1.52;0.70;;;;;;;;;;4968573;28;20444;-66
2022/08/11 13:51:41;;;;;;;2.17;0.90;;;;;;;;;;4967410;28;20340;-66
2022/08/11 13:54:10;;;;;;;0.52;0.50;;;;;;;;;;4969408;28;20030;-68
2022/08/11 13:56:38;;;;;;;;;;;;;;;;;;4967905;28;20480;-66
2022/08/11 13:59:04;;;;;;;0.70;0.50;;;;;;;;;;4971273;28;20374;-66
2022/08/11 14:01:33;;;;;;;1.63;0.50;;;;;;;;;;4967617;28;20394;-65
2022/08/11 14:04:07;;;;;;;1.10;0.65;;;;;;;;;;4971212;28;20416;-70
2022/08/11 14:06:33;;;;;;;2.03;0.80;;;;;;;;;;4967506;28;20115;-66
2022/08/11 14:08:59;;;;;;;3.25;0.70;;;;;;;;;;4967890;28;20340;-66
2022/08/11 14:14:11;;;;;;;1.02;0.47;;;;;;;;;;4968695;28;20546;-65
2022/08/11 14:16:40;;;;;;;0.60;0.47;;;;;;;;;;4967545;28;20451;-66
2022/08/11 14:19:10;;;;;;;2.28;0.57;;;;;;;;;;4967248;28;20403;-65
2022/08/11 14:24:21;;;;;;;0.93;0.45;;;;;;;;;;4968506;28;20494;-65
2022/08/11 14:26:50;;;;;;;1.05;0.75;;;;;;;;;;4966999;28;20386;-65
2022/08/11 14:29:20;;;;;;;2.40;0.63;;;;;;;;;;4965929;28;20528;-66
2022/08/11 14:31:47;;;;;;;1.60;1.08;;;;;;;;;;4970516;28;20435;-65
2022/08/11 14:34:13;;;;;;;0.88;0.50;;;;;;;;;;4967002;28;20459;-65
2022/08/11 14:36:42;;;;;;;4.35;1.35;;;;;;;;;;4966916;28;20462;-65
2022/08/11 14:39:11;;;;;;;;;;;;;;;;;;4967197;28;20452;-69
2022/08/11 14:47:07;;;;;;;1.20;0.60;;;;;;;;;;4967153;28;20427;-65
2022/08/11 14:49:36;;;;;;;0.98;0.60;;;;;;;;;;4968411;28;20424;-69
2022/08/11 14:52:22;;;;;;;0.95;0.77;;;;;;;;;;4967821;28;20348;-66
2022/08/11 14:57:37;;;;;;;0.60;0.32;;;;;;;;;;4967372;28;20501;-69
2022/08/11 15:00:05;;;;;;;1.33;0.50;;;;;;;;;;4966397;28;20475;-66
2022/08/11 15:05:19;;;;;;;0.50;0.50;;;;;;;;;;4967790;28;20137;-65
2022/08/11 15:07:44;;;;;;;0.73;0.50;;;;;;;;;;4966597;28;20432;-65
2022/08/11 15:10:10;;;;;;;0.40;0.40;;;;;;;;;;4966180;28;20344;-65
2022/08/11 15:12:38;;;;;;;1.63;1.00;;;;;;;;;;4966040;28;20594;-65
2022/08/11 15:17:54;;;;;;;0.90;0.55;;;;;;;;;;4968131;28;20475;-65
2022/08/11 15:25:55;;;;;;;0.50;0.40;;;;;;;;;;4968353;28;20364;-66
2022/08/11 15:39:30;;;;;;;0.63;0.50;;;;;;;;;;4967076;28;20140;-65
2022/08/11 15:47:41;;;;;;;1.05;0.50;;;;;;;;;;4966121;28;20501;-66
2022/08/11 15:50:09;;;;;;;0.90;0.68;;;;;;;;;;4967036;28;20025;-68
2022/08/11 15:52:44;;;;;;;0.65;0.50;;;;;;;;;;4965141;28;20352;-66
2022/08/11 15:55:10;;;;;;;0.90;0.55;;;;;;;;;;4966535;28;20508;-66
2022/08/11 16:05:50;;;;;;;1.38;0.70;;;;;;;;;;4965599;28;20372;-66
2022/08/11 16:08:18;;;;;;;0.77;0.40;;;;;;;;;;4965390;28;20376;-65
2022/08/11 16:10:43;;;;;;;0.80;0.55;;;;;;;;;;4966734;28;20365;-67
2022/08/11 16:18:39;;;;;;;0.65;0.40;;;;;;;;;;4965559;28;20135;-66
2022/08/11 16:21:06;;;;;;;0.40;0.38;;;;;;;;;;4965311;28;20648;-68
2022/08/11 16:23:32;;;;;;;0.55;0.55;;;;;;;;;;4965201;28;20375;-67
2022/08/11 16:25:59;;;;;;;1.10;0.40;;;;;;;;;;4967253;28;20021;-66
2022/08/11 16:28:25;;;;;;;0.85;0.40;;;;;;;;;;4966193;28;20461;-65
2022/08/11 16:30:52;;;;;;;0.85;0.50;;;;;;;;;;4964784;28;20373;-66
2022/08/11 16:33:19;;;;;;;0.95;0.50;;;;;;;;;;4964989;28;20325;-65
2022/08/11 16:38:34;;;;;;;0.65;0.50;;;;;;;;;;4966736;28;20482;-66
2022/08/11 16:41:02;;;;;;;0.73;0.40;;;;;;;;;;4966617;28;20463;-65
2022/08/11 16:49:04;;;;;;;0.57;0.30;;;;;;;;;;4967135;28;20352;-65
2022/08/11 16:51:29;;;;;;;1.10;0.50;;;;;;;;;;4948541;28;20394;-66
2022/08/11 16:53:55;;;;;;;0.85;0.40;;;;;;;;;;4968811;28;20341;-65
2022/08/11 16:56:30;;;;;;;2.53;0.57;;;;;;;;;;4972154;28;20424;-66
2022/08/11 16:59:15;;;;;;;0.75;0.50;;;;;;;;;;4968739;28;20545;-66
2022/08/11 17:01:44;;;;;;;1.02;0.73;;;;;;;;;;4969996;28;20105;-65
2022/08/11 17:18:38;;;;;;;0.63;0.45;;;;;;;;;;4968530;28;20497;-65
2022/08/11 17:21:02;;;;;;;0.88;0.47;;;;;;;;;;4970105;28;20377;-66
2022/08/11 17:23:48;;;;;;;0.82;0.45;;;;;;;;;;4968134;28;20359;-67
2022/08/11 17:26:20;;;;;;;6.57;1.35;;;;;;;;;;4968592;28;20419;-67
2022/08/11 17:28:50;;;;;;;1.75;0.70;;;;;;;;;;4967518;28;20523;-66
2022/08/11 17:36:45;;;;;;;0.95;0.50;;;;;;;;;;4970977;28;20367;-65
2022/08/11 17:39:12;;;;;;;1.73;0.65;;;;;;;;;;4967883;28;20359;-66
2022/08/11 17:49:56;;;;;;;1.30;0.70;;;;;;;;;;4970132;28;20502;-66
2022/08/11 18:00:36;;;;;;;0.50;0.45;;;;;;;;;;4968248;28;20372;-65
2022/08/11 18:05:48;;;;;;;0.45;0.38;;;;;;;;;;4968974;28;20060;-65
